Time;durP1;ratioP1;P1;durP2;ratioP2;P2;SDS_P1;SDS_P2;PMS_P1;PMS_P2;Temp;Humidity;BMP_temperature;BMP_pressure;BME280_temperature;BME280_humidity;BME280_pressure;Samples;Min_cycle;Max_cycle;Signal;HPM_P1;HPM_P2
2021/07/08 00:00:11;;;;;;;17.90;15.60;;;15.60;1.40;;;17.22;100.00;95599.51;644874;212;31630;-70
2021/07/08 00:02:53;;;;;;;20.30;17.33;;;15.60;1.40;;;17.23;100.00;95610.41;619203;226;32042;-72
2021/07/08 00:05:36;;;;;;;20.35;15.93;;;15.70;1.40;;;17.24;100.00;95618.92;645851;216;31596;-71
2021/07/08 00:08:18;;;;;;;19.27;16.17;;;15.70;1.40;;;17.39;100.00;95610.70;647721;214;31656;-70
2021/07/08 00:11:00;;;;;;;20.88;16.42;;;15.70;1.40;;;17.41;100.00;95599.56;646847;212;31598;-70
2021/07/08 00:13:41;;;;;;;23.17;16.00;;;15.70;1.40;;;17.40;100.00;95591.38;646790;216;31631;-70
2021/07/08 00:16:23;;;;;;;24.05;17.30;;;15.70;1.40;;;17.32;100.00;95584.45;645380;216;31733;-71
2021/07/08 00:19:05;;;;;;;19.62;15.10;;;15.70;1.40;;;17.18;100.00;95586.65;646186;212;31982;-71
2021/07/08 00:21:49;;;;;;;22.13;16.23;;;15.70;1.40;;;17.21;100.00;95583.38;646415;212;31675;-72
2021/07/08 00:24:31;;;;;;;17.73;14.13;;;15.70;1.40;;;17.22;100.00;95588.89;648071;216;31611;-70
2021/07/08 00:27:16;;;;;;;16.75;15.02;;;15.70;1.40;;;17.30;100.00;95592.23;645644;216;31735;-71
2021/07/08 00:29:57;;;;;;;17.33;14.65;;;15.70;1.40;;;17.30;100.00;95589.94;646573;216;31709;-71
2021/07/08 00:32:41;;;;;;;18.30;14.32;;;15.70;1.40;;;17.31;100.00;95589.20;618445;226;32629;-71
2021/07/08 00:35:51;;;;;;;15.65;13.07;;;15.70;1.40;;;17.41;100.00;95586.12;647241;216;42422;-71
2021/07/08 00:38:36;;;;;;;15.40;13.20;;;15.70;1.40;;;17.52;100.00;95588.58;646590;216;32156;-71
2021/07/08 00:41:17;;;;;;;17.40;13.90;;;15.70;1.40;;;17.54;100.00;95597.55;647389;216;31752;-71
2021/07/08 00:44:06;;;;;;;15.50;12.48;;;15.70;1.40;;;17.47;100.00;95597.42;647649;216;31607;-75
2021/07/08 00:46:53;;;;;;;14.30;12.73;;;15.70;1.40;;;17.48;100.00;95606.80;644696;216;31621;-71
2021/07/08 00:49:38;;;;;;;14.70;12.18;;;15.70;1.40;;;17.56;100.00;95613.40;645924;212;31909;-70
2021/07/08 00:52:25;;;;;;;13.13;11.82;;;15.70;1.40;;;17.48;100.00;95624.36;647950;216;31652;-70
2021/07/08 00:55:08;;;;;;;14.18;11.70;;;15.70;1.40;;;17.65;100.00;95616.59;647212;212;31598;-70
2021/07/08 00:57:53;;;;;;;13.65;11.50;;;15.80;1.40;;;17.64;100.00;95617.03;646948;216;31572;-70
2021/07/08 01:00:34;;;;;;;12.98;11.50;;;15.70;1.40;;;17.64;100.00;95618.42;646206;216;31589;-71
2021/07/08 01:03:16;;;;;;;13.13;11.82;;;15.70;1.40;;;17.63;100.00;95618.13;645774;212;31770;-70
2021/07/08 01:05:58;;;;;;;12.90;10.70;;;15.80;1.40;;;17.62;100.00;95624.63;647739;213;31635;-70
2021/07/08 01:13:48;;;;;;;13.37;11.00;;;15.80;1.40;;;17.52;100.00;95604.11;646495;212;31911;-71
2021/07/08 01:16:30;;;;;;;11.32;10.13;;;15.70;1.40;;;17.37;100.00;95601.59;646646;216;31599;-71
2021/07/08 01:19:12;;;;;;;11.20;10.02;;;15.70;1.40;;;17.49;100.00;95595.58;644813;216;31893;-72
2021/07/08 01:21:53;;;;;;;11.80;10.02;;;15.80;1.40;;;17.47;100.00;95590.48;647704;216;31611;-71
2021/07/08 01:24:35;;;;;;;10.80;9.70;;;15.70;1.40;;;17.52;100.00;95587.05;646773;212;31559;-71
2021/07/08 01:29:51;;;;;;;11.80;10.20;;;15.80;1.40;;;17.38;100.00;95584.82;646092;216;31591;-70
2021/07/08 01:32:33;;;;;;;10.38;9.38;;;15.70;1.40;;;17.53;100.00;95589.16;645337;212;31574;-70
2021/07/08 01:35:51;;;;;;;11.10;9.70;;;15.80;1.40;;;17.52;100.00;95570.77;646170;212;42172;-70
2021/07/08 01:38:32;;;;;;;10.30;9.40;;;15.80;1.40;;;17.53;100.00;95553.62;619112;222;31906;-71
2021/07/08 01:41:14;;;;;;;10.27;9.30;;;15.80;1.40;;;17.44;100.00;95543.83;645665;212;31579;-69
2021/07/08 01:43:56;;;;;;;10.57;9.70;;;15.80;1.40;;;17.43;100.00;95531.44;647967;212;32032;-71
2021/07/08 01:46:38;;;;;;;10.88;9.88;;;15.80;1.40;;;17.56;100.00;95537.02;618394;226;31931;-70
2021/07/08 01:49:21;;;;;;;9.95;9.05;;;15.80;1.40;;;17.49;100.00;95536.81;646171;212;31578;-71
2021/07/08 01:52:03;;;;;;;11.68;10.55;;;15.80;1.40;;;17.59;100.00;95532.48;646724;216;31592;-70
2021/07/08 01:54:48;;;;;;;10.32;9.32;;;15.80;1.40;;;17.63;100.00;95535.59;648687;212;31537;-70
2021/07/08 01:57:29;;;;;;;10.43;9.45;;;15.80;1.40;;;17.63;100.00;95523.73;618452;226;31887;-71
2021/07/08 02:00:13;;;;;;;10.70;9.57;;;15.70;1.40;;;17.55;100.00;95519.86;646315;216;31617;-70
2021/07/08 02:02:57;;;;;;;10.00;9.10;;;15.70;1.40;;;17.67;100.00;95529.55;647624;215;31588;-71
2021/07/08 02:05:45;;;;;;;10.02;9.23;;;15.80;1.40;;;17.63;100.00;95536.66;645192;212;31830;-75
2021/07/08 02:08:35;;;;;;;9.05;8.15;;;15.80;1.40;;;17.63;100.00;95540.89;646568;216;31580;-71
2021/07/08 02:11:14;;;;;;;9.80;8.90;;;15.80;1.40;;;17.65;100.00;95538.93;645247;212;42925;-72
2021/07/08 02:13:56;;;;;;;9.57;8.65;;;15.70;1.40;;;17.72;100.00;95537.42;647180;216;32364;-71
2021/07/08 02:16:38;;;;;;;8.45;7.75;;;15.80;1.40;;;17.73;100.00;95534.09;645758;216;32202;-71
2021/07/08 02:19:20;;;;;;;9.30;8.40;;;15.80;1.40;;;17.78;100.00;95535.27;645634;216;32244;-72
2021/07/08 02:22:01;;;;;;;8.30;7.50;;;15.80;1.40;;;17.70;100.00;95534.00;618027;226;32451;-72
2021/07/08 02:24:43;;;;;;;8.50;7.80;;;15.70;1.40;;;17.81;100.00;95527.14;646847;216;32206;-72
2021/07/08 02:27:25;;;;;;;8.80;8.05;;;15.80;1.40;;;17.59;100.00;95531.57;646218;216;31546;-71
2021/07/08 02:30:13;;;;;;;8.77;7.97;;;15.70;1.40;;;17.63;100.00;95539.61;646603;212;31566;-71
2021/07/08 02:32:55;;;;;;;8.80;7.90;;;15.80;1.40;;;17.70;100.00;95546.17;619332;222;31963;-70
2021/07/08 02:35:54;;;;;;;10.25;8.75;;;15.80;1.40;;;17.55;100.00;95540.68;645241;212;42202;-71
2021/07/08 02:38:36;;;;;;;9.10;8.20;;;15.80;1.40;;;17.54;100.00;95546.02;646718;216;31564;-72
2021/07/08 02:41:18;;;;;;;8.48;7.60;;;15.80;1.40;;;17.54;100.00;95543.84;643673;216;31675;-71
2021/07/08 02:44:00;;;;;;;9.07;7.30;;;15.80;1.40;;;17.49;100.00;95548.83;646203;216;31704;-71
2021/07/08 02:46:41;;;;;;;9.32;7.60;;;15.80;1.40;;;17.38;100.00;95552.80;646382;215;31897;-72
2021/07/08 02:49:23;;;;;;;10.65;7.12;;;15.70;1.40;;;17.43;100.00;95554.02;646772;216;42775;-71
2021/07/08 02:52:07;;;;;;;7.57;6.87;;;15.70;1.40;;;17.60;100.00;95561.64;644096;212;31555;-72
2021/07/08 02:54:49;;;;;;;9.23;7.50;;;15.70;1.40;;;17.58;100.00;95562.16;646819;212;31534;-71
2021/07/08 02:57:31;;;;;;;7.50;6.80;;;15.70;1.40;;;17.43;100.00;95560.68;646752;216;31549;-71
2021/07/08 03:00:13;;;;;;;9.13;7.40;;;15.70;1.40;;;17.59;100.00;95548.31;646993;212;31557;-72
2021/07/08 03:02:55;;;;;;;7.95;6.40;;;15.70;1.40;;;17.52;100.00;95549.87;647386;216;31532;-72
2021/07/08 03:05:37;;;;;;;7.82;6.80;;;15.70;1.40;;;17.54;100.00;95552.19;647475;212;32149;-71
2021/07/08 03:08:18;;;;;;;7.10;6.50;;;15.70;1.40;;;17.56;100.00;95548.09;647044;212;31818;-73
2021/07/08 03:11:01;;;;;;;7.97;7.20;;;15.70;1.40;;;17.60;100.00;95548.36;618226;226;31921;-71
2021/07/08 03:13:42;;;;;;;8.18;7.47;;;15.70;1.40;;;17.60;100.00;95553.05;645968;216;31554;-71
2021/07/08 03:16:23;;;;;;;7.35;6.75;;;15.80;1.40;;;17.60;100.00;95551.48;646975;216;31530;-71
2021/07/08 03:19:05;;;;;;;7.93;7.07;;;15.70;1.40;;;17.65;100.00;95552.00;646065;212;31541;-71
2021/07/08 03:21:47;;;;;;;8.40;7.60;;;15.70;1.40;;;17.68;100.00;95547.72;645964;212;31565;-71
2021/07/08 03:24:28;;;;;;;8.32;7.62;;;15.70;1.40;;;17.63;100.00;95545.13;646697;212;31632;-70
2021/07/08 03:27:13;;;;;;;7.78;7.18;;;15.70;1.40;;;17.62;100.00;95544.80;646068;212;31575;-71
2021/07/08 03:29:55;;;;;;;8.18;7.47;;;15.70;1.40;;;17.69;100.00;95544.40;646915;212;31558;-71
2021/07/08 03:32:36;;;;;;;7.97;7.28;;;15.70;1.40;;;17.56;100.00;95552.11;646597;212;31536;-71
2021/07/08 03:35:51;;;;;;;7.60;6.90;;;15.70;1.40;;;17.57;100.00;95558.91;646533;216;31545;-71
2021/07/08 03:38:33;;;;;;;8.15;6.97;;;15.70;1.40;;;17.53;100.00;95573.45;645687;212;31556;-71
2021/07/08 03:41:15;;;;;;;7.10;6.40;;;15.70;1.40;;;17.54;100.00;95573.41;646014;214;31570;-71
2021/07/08 03:43:56;;;;;;;7.15;6.55;;;15.70;1.40;;;17.60;100.00;95567.40;647705;212;31544;-70
2021/07/08 03:46:41;;;;;;;6.93;6.32;;;15.80;1.40;;;17.73;100.00;95563.22;646609;216;31725;-71
2021/07/08 03:49:23;;;;;;;7.78;7.07;;;15.80;1.40;;;17.67;100.00;95566.53;647597;215;31554;-72
2021/07/08 03:52:05;;;;;;;6.80;6.30;;;15.80;1.40;;;17.80;100.00;95574.41;646734;212;31557;-71
2021/07/08 03:54:50;;;;;;;7.28;6.03;;;15.80;1.40;;;17.81;100.00;95581.13;646519;212;31574;-71
2021/07/08 03:57:32;;;;;;;6.57;5.97;;;15.80;1.40;;;17.77;100.00;95576.86;645937;215;31642;-72
2021/07/08 04:02:49;;;;;;;5.77;5.30;;;15.80;1.40;;;17.74;100.00;95582.11;645730;212;31529;-70
2021/07/08 04:08:05;;;;;;;5.93;5.53;;;15.90;1.40;;;17.67;100.00;95597.50;646180;216;31515;-71
2021/07/08 04:10:47;;;;;;;6.85;5.97;;;15.80;1.40;;;17.76;100.00;95597.34;647177;212;31563;-71
2021/07/08 04:13:29;;;;;;;7.10;6.50;;;15.80;1.40;;;17.60;100.00;95598.08;644105;212;31576;-71
2021/07/08 04:16:10;;;;;;;6.80;6.10;;;15.80;1.40;;;17.70;100.00;95582.41;646360;216;31508;-71
2021/07/08 04:18:52;;;;;;;7.15;6.53;;;15.80;1.40;;;17.82;100.00;95578.05;647271;212;31544;-71
2021/07/08 04:21:34;;;;;;;7.53;6.90;;;15.90;1.40;;;17.87;100.00;95590.69;645569;216;31570;-72
2021/07/08 04:24:18;;;;;;;7.80;7.00;;;15.90;1.40;;;17.86;100.00;95599.28;646074;216;31590;-71
2021/07/08 04:27:00;;;;;;;7.40;6.70;;;15.90;1.40;;;17.83;100.00;95609.89;647443;212;31579;-72
2021/07/08 04:29:42;;;;;;;7.70;6.90;;;15.90;1.40;;;17.94;100.00;95607.48;645743;216;31549;-71
2021/07/08 04:32:23;;;;;;;8.25;7.45;;;16.00;1.40;;;18.00;100.00;95601.09;646985;216;32793;-71
2021/07/08 04:35:52;;;;;;;8.40;7.40;;;15.90;1.40;;;17.93;100.00;95600.72;648070;212;32138;-71
2021/07/08 04:38:33;;;;;;;7.70;7.00;;;15.90;1.40;;;17.90;100.00;95607.87;646508;212;32146;-71
2021/07/08 04:41:18;;;;;;;8.35;7.22;;;15.90;1.40;;;17.88;100.00;95601.97;642347;216;31936;-71
2021/07/08 04:44:00;;;;;;;8.70;7.90;;;15.90;1.40;;;17.93;100.00;95596.07;645770;212;31545;-71
2021/07/08 04:46:41;;;;;;;8.23;7.43;;;16.00;1.40;;;18.11;100.00;95594.34;646332;216;31565;-72
2021/07/08 04:49:23;;;;;;;8.73;7.93;;;16.10;1.40;;;18.05;100.00;95584.10;645762;216;31557;-73
2021/07/08 04:52:08;;;;;;;8.33;7.53;;;16.10;1.40;;;18.04;100.00;95587.27;647084;212;31750;-73
2021/07/08 04:54:50;;;;;;;8.40;7.60;;;16.00;1.40;;;18.09;100.00;95588.73;646897;216;31561;-73
2021/07/08 04:57:44;;;;;;;8.90;8.00;;;16.10;1.40;;;18.06;100.00;95588.52;645307;212;32070;-74
2021/07/08 05:00:26;;;;;;;8.43;7.60;;;16.00;1.40;;;18.07;100.00;95588.64;645154;212;31799;-72
2021/07/08 05:03:07;;;;;;;9.30;8.50;;;16.10;1.40;;;18.28;100.00;95594.28;646125;212;31548;-72
2021/07/08 05:05:52;;;;;;;12.15;9.40;;;16.20;1.40;;;18.21;100.00;95598.30;647204;212;31562;-74
2021/07/08 05:08:34;;;;;;;10.50;9.35;;;16.20;1.40;;;18.31;100.00;95596.69;646434;212;31526;-73
2021/07/08 05:11:16;;;;;;;11.30;10.30;;;16.30;1.40;;;18.33;100.00;95593.60;645490;216;31575;-72
2021/07/08 05:14:03;;;;;;;13.00;11.80;;;16.30;1.40;;;18.26;100.00;95591.06;645646;212;31873;-72
2021/07/08 05:16:46;;;;;;;13.77;12.45;;;16.40;1.40;;;18.23;100.00;95591.67;647734;212;31629;-72
2021/07/08 05:19:28;;;;;;;14.52;13.07;;;16.40;1.40;;;18.07;100.00;95585.10;645678;213;31608;-71
2021/07/08 05:22:09;;;;;;;15.95;14.45;;;16.30;1.40;;;17.99;100.00;95585.73;646753;216;31662;-72
2021/07/08 05:24:51;;;;;;;16.37;14.20;;;16.30;1.40;;;18.04;100.00;95583.52;619419;226;31954;-72
2021/07/08 05:27:35;;;;;;;16.15;14.65;;;16.30;1.40;;;18.03;100.00;95593.37;639183;218;31645;-73
2021/07/08 05:30:22;;;;;;;18.17;16.33;;;16.30;1.40;;;18.21;100.00;95598.92;645845;216;31947;-71
2021/07/08 05:35:54;;;;;;;18.10;16.40;;;16.40;1.40;;;18.04;100.00;95602.33;646920;216;31773;-72
2021/07/08 05:38:36;;;;;;;18.45;16.65;;;16.40;1.40;;;18.02;100.00;95599.08;646497;212;31669;-71
2021/07/08 05:41:17;;;;;;;17.90;16.20;;;16.40;1.40;;;18.13;100.00;95596.29;647498;212;31672;-71
2021/07/08 05:43:59;;;;;;;18.52;16.73;;;16.40;1.40;;;18.22;100.00;95605.50;645624;216;31638;-72
2021/07/08 05:46:41;;;;;;;18.17;16.37;;;16.50;1.40;;;18.13;100.00;95613.78;645189;212;31633;-72
2021/07/08 05:49:22;;;;;;;19.12;17.12;;;16.50;1.40;;;18.20;100.00;95612.63;646615;216;31651;-72
2021/07/08 05:52:06;;;;;;;19.37;17.48;;;16.50;1.40;;;18.27;100.00;95609.14;646265;216;31604;-73
2021/07/08 05:54:50;;;;;;;20.33;18.23;;;16.50;1.40;;;18.39;100.00;95605.61;646188;216;31617;-71
2021/07/08 05:57:32;;;;;;;22.07;19.97;;;16.60;1.40;;;18.33;100.00;95609.50;645399;216;31792;-70
2021/07/08 06:00:16;;;;;;;22.40;20.30;;;16.60;1.40;;;18.11;100.00;95621.39;646285;212;32310;-71
2021/07/08 06:02:57;;;;;;;23.60;21.20;;;16.50;1.40;;;18.00;100.00;95624.30;618421;222;32285;-71
2021/07/08 06:05:39;;;;;;;23.58;20.80;;;16.50;1.40;;;18.08;100.00;95622.15;646060;216;31594;-71
2021/07/08 06:08:21;;;;;;;24.90;22.40;;;16.50;1.40;;;18.01;100.00;95616.41;645980;212;31747;-71
2021/07/08 06:11:03;;;;;;;25.67;23.07;;;16.60;1.40;;;18.12;100.00;95613.70;646930;216;31665;-72
2021/07/08 06:13:50;;;;;;;23.20;20.75;;;16.70;1.40;;;18.20;100.00;95604.47;645225;212;31598;-72
2021/07/08 06:16:38;;;;;;;24.30;21.90;;;16.70;1.40;;;18.34;100.00;95609.13;646144;216;31641;-72
2021/07/08 06:19:20;;;;;;;25.37;22.98;;;16.80;1.40;;;18.13;100.00;95607.03;646920;216;31594;-72
2021/07/08 06:22:02;;;;;;;24.63;22.23;;;16.70;1.40;;;18.13;100.00;95613.49;646622;212;31602;-72
2021/07/08 06:24:46;;;;;;;24.23;21.83;;;16.70;1.40;;;18.15;100.00;95613.59;646628;212;33319;-72
2021/07/08 06:27:28;;;;;;;24.52;22.08;;;16.80;1.40;;;18.59;100.00;95614.23;645060;212;31846;-71
2021/07/08 06:30:10;;;;;;;26.42;23.80;;;16.80;1.40;;;18.77;100.00;95611.88;644953;216;32037;-72
2021/07/08 06:32:52;;;;;;;27.00;24.30;;;17.00;1.40;;;18.79;100.00;95609.39;617369;226;31964;-71
2021/07/08 06:35:51;;;;;;;27.30;24.60;;;17.00;1.40;;;18.98;100.00;95606.00;647075;212;31598;-70
2021/07/08 06:38:33;;;;;;;27.20;24.50;;;17.10;1.40;;;19.00;100.00;95601.88;646271;213;31515;-71
2021/07/08 06:41:15;;;;;;;26.08;23.60;;;17.20;1.40;;;19.41;100.00;95594.01;633335;212;36278;-72
2021/07/08 06:43:56;;;;;;;27.75;24.85;;;17.30;1.40;;;19.57;100.00;95592.56;641966;215;42834;-71
2021/07/08 06:46:38;;;;;;;28.20;25.50;;;17.50;1.40;;;20.08;100.00;95600.83;618691;222;32537;-72
2021/07/08 06:49:20;;;;;;;26.92;24.33;;;17.90;1.40;;;20.30;100.00;95609.83;644899;216;31709;-72
2021/07/08 06:52:02;;;;;;;25.17;22.87;;;18.10;1.40;;;20.36;100.00;95614.97;646222;216;31860;-71
2021/07/08 06:54:44;;;;;;;23.48;21.27;;;18.10;1.40;;;20.32;100.00;95620.06;644917;216;31605;-71
2021/07/08 06:57:28;;;;;;;22.95;20.95;;;18.10;1.40;;;20.51;100.00;95623.56;618097;222;32180;-71
2021/07/08 07:00:11;;;;;;;22.08;20.02;;;18.20;1.40;;;20.51;100.00;95616.41;644912;212;31605;-71
2021/07/08 07:02:52;;;;;;;21.12;19.20;;;18.10;1.40;;;20.29;100.00;95621.11;646494;212;42861;-71
2021/07/08 07:05:34;;;;;;;21.73;19.83;;;18.00;1.40;;;20.08;100.00;95625.90;646633;216;31750;-71
2021/07/08 07:08:16;;;;;;;21.27;19.27;;;17.80;1.40;;;20.04;100.00;95627.23;645823;216;31629;-71
2021/07/08 07:10:58;;;;;;;21.95;19.98;;;17.80;1.40;;;19.96;100.00;95629.34;646432;212;31591;-71
2021/07/08 07:13:39;;;;;;;21.70;19.75;;;17.90;1.40;;;20.14;100.00;95621.45;646361;216;31627;-72
2021/07/08 07:16:21;;;;;;;21.65;19.75;;;18.00;1.40;;;20.16;100.00;95624.58;645609;212;32102;-70
2021/07/08 07:19:03;;;;;;;20.33;18.62;;;18.00;1.40;;;20.12;100.00;95622.61;647351;216;31596;-70
2021/07/08 07:21:44;;;;;;;22.00;20.00;;;18.00;1.40;;;20.17;100.00;95629.75;646401;216;31588;-71
2021/07/08 07:24:29;;;;;;;22.30;20.30;;;18.00;1.40;;;20.00;100.00;95634.80;616545;222;32167;-70
2021/07/08 07:27:11;;;;;;;21.92;20.02;;;18.20;1.40;;;20.06;100.00;95636.14;646293;212;31607;-71
2021/07/08 07:29:53;;;;;;;23.55;21.45;;;18.30;1.40;;;20.63;100.00;95636.61;632477;221;31797;-71
2021/07/08 07:32:35;;;;;;;21.40;19.60;;;18.50;1.40;;;20.69;100.00;95642.56;645380;212;31699;-71
2021/07/08 07:35:50;;;;;;;19.65;17.95;;;18.50;1.40;;;20.78;100.00;95652.61;646536;212;32184;-71
2021/07/08 07:38:32;;;;;;;19.95;18.05;;;18.60;1.40;;;20.79;100.00;95659.09;647116;212;31671;-71
2021/07/08 07:41:14;;;;;;;20.15;18.45;;;18.60;1.40;;;20.31;100.00;95655.51;645634;216;31709;-71
2021/07/08 07:43:56;;;;;;;20.85;18.98;;;18.30;1.40;;;20.27;100.00;95653.20;646874;212;31735;-71
2021/07/08 07:46:37;;;;;;;22.55;20.55;;;18.10;1.40;;;20.43;100.00;95639.19;647148;216;31608;-71
2021/07/08 07:49:19;;;;;;;22.90;20.90;;;18.10;1.40;;;20.35;100.00;95638.36;645299;216;42250;-72
2021/07/08 07:52:03;;;;;;;23.05;21.05;;;18.20;1.40;;;20.40;100.00;95643.95;647769;212;31669;-72
2021/07/08 07:54:51;;;;;;;24.00;21.80;;;18.20;1.40;;;20.22;100.00;95650.34;646302;213;31596;-71
2021/07/08 07:57:33;;;;;;;23.00;20.98;;;18.20;1.40;;;19.95;100.00;95654.45;647740;216;31636;-70
2021/07/08 08:00:20;;;;;;;23.77;21.58;;;18.10;1.40;;;19.92;100.00;95656.06;618318;226;33256;-73
2021/07/08 08:03:04;;;;;;;23.05;20.95;;;18.00;1.40;;;20.04;100.00;95652.41;644915;216;31602;-72
2021/07/08 08:05:57;;;;;;;22.45;20.35;;;18.00;1.40;;;20.07;100.00;95644.56;646573;216;31679;-71
2021/07/08 08:08:30;;;;;;;21.90;19.90;;;18.10;1.40;;;20.07;100.00;95646.63;647694;212;31797;-73
2021/07/08 08:11:13;;;;;;;22.98;20.98;;;18.20;1.40;;;20.10;100.00;95647.02;646855;216;31599;-71
2021/07/08 08:13:55;;;;;;;22.52;20.52;;;18.20;1.40;;;19.99;100.00;95648.09;645362;216;31613;-70
2021/07/08 08:16:43;;;;;;;22.70;20.60;;;18.10;1.40;;;19.90;100.00;95657.77;648780;212;32183;-72
2021/07/08 08:19:26;;;;;;;23.42;21.33;;;18.10;1.40;;;19.93;100.00;95668.29;645167;216;31604;-71
2021/07/08 08:22:11;;;;;;;25.02;22.83;;;18.00;1.40;;;19.79;100.00;95675.95;644567;216;42246;-72
2021/07/08 08:24:56;;;;;;;24.02;22.13;;;18.00;1.40;;;19.84;100.00;95678.17;647259;216;31584;-71
2021/07/08 08:27:38;;;;;;;24.35;22.15;;;18.00;1.40;;;19.73;100.00;95675.25;646267;216;31690;-70
2021/07/08 08:30:20;;;;;;;23.62;21.52;;;18.00;1.40;;;19.78;100.00;95680.28;647700;216;31606;-71
2021/07/08 08:35:51;;;;;;;24.80;22.60;;;18.10;1.40;;;19.64;100.00;95683.02;649829;212;31687;-70
2021/07/08 08:38:32;;;;;;;25.05;22.85;;;18.10;1.40;;;19.68;100.00;95688.34;646778;212;31582;-70
2021/07/08 08:41:18;;;;;;;25.73;23.43;;;18.20;1.40;;;19.94;100.00;95679.39;634569;216;31745;-71
2021/07/08 08:44:05;;;;;;;27.45;25.05;;;18.60;1.40;;;20.94;100.00;95671.87;647654;216;31613;-71
2021/07/08 08:46:47;;;;;;;22.70;20.60;;;19.50;1.40;;;21.86;100.00;95688.36;645975;216;31768;-72
2021/07/08 08:49:39;;;;;;;21.10;19.15;;;19.90;1.40;;;21.17;100.00;95687.58;646073;216;31599;-71
2021/07/08 08:52:21;;;;;;;21.83;20.02;;;19.10;1.40;;;20.93;100.00;95691.31;646606;216;42164;-71
2021/07/08 08:55:03;;;;;;;21.67;19.77;;;18.90;1.40;;;20.74;100.00;95690.91;646752;216;31608;-71
2021/07/08 08:57:46;;;;;;;21.20;19.30;;;18.70;1.40;;;20.44;100.00;95692.27;645885;212;42244;-72
2021/07/08 09:00:43;;;;;;;21.75;19.95;;;18.70;1.40;;;20.62;100.00;95682.95;648800;216;41739;-71
2021/07/08 09:03:26;;;;;;;23.42;21.33;;;18.70;1.40;;;20.52;100.00;95666.25;646650;216;42250;-70
2021/07/08 09:06:11;;;;;;;22.87;21.00;;;18.70;1.40;;;20.76;100.00;95666.67;645016;212;32740;-71
2021/07/08 09:08:53;;;;;;;23.90;21.90;;;18.80;1.40;;;20.93;100.00;95675.27;646260;216;32635;-70
2021/07/08 09:11:35;;;;;;;23.27;21.17;;;18.90;1.40;;;21.18;100.00;95663.78;646410;212;42239;-71
2021/07/08 09:16:49;;;;;;;21.58;19.67;;;19.80;1.40;;;23.08;100.00;95663.91;647539;216;32267;-70
2021/07/08 09:20:06;;;;;;;19.48;17.98;;;21.20;1.40;;;24.29;89.50;95671.52;646101;216;32258;-70
2021/07/08 09:22:48;;;;;;;18.30;16.80;;;21.30;1.40;;;24.26;91.19;95671.25;646606;212;31725;-71
2021/07/08 09:25:29;;;;;;;17.80;16.25;;;21.40;1.40;;;24.90;90.82;95664.66;645370;212;31640;-70
2021/07/08 09:28:21;;;;;;;18.98;17.58;;;21.10;1.40;;;24.57;89.05;95662.39;646599;212;31893;-73
2021/07/08 09:31:02;;;;;;;18.83;17.42;;;20.80;1.40;;;24.96;90.27;95661.49;619496;226;32136;-72
2021/07/08 09:35:51;;;;;;;16.97;15.67;;;20.70;1.40;;;23.98;92.84;95667.61;645782;213;31700;-71
2021/07/08 09:38:33;;;;;;;17.50;16.15;;;20.40;1.40;;;23.05;94.27;95667.36;646338;212;31787;-71
2021/07/08 09:43:30;;;;;;;16.70;15.40;;;19.90;1.40;;;21.93;100.00;95673.27;646453;216;42358;-71
2021/07/08 09:46:12;;;;;;;15.30;14.10;;;19.60;1.40;;;21.49;100.00;95673.11;646856;212;31634;-71
2021/07/08 09:49:04;;;;;;;16.37;15.00;;;19.30;1.40;;;21.49;100.00;95658.86;646568;216;31693;-71
2021/07/08 09:51:46;;;;;;;16.35;14.95;;;19.20;1.40;;;21.59;100.00;95644.78;646139;216;31626;-71
2021/07/08 09:54:42;;;;;;;16.00;14.80;;;19.50;1.40;;;22.14;100.00;95637.61;645658;212;31644;-70
2021/07/08 09:57:47;;;;;;;15.82;14.63;;;20.00;1.40;;;23.26;99.50;95633.00;646526;216;31674;-71
2021/07/08 10:00:28;;;;;;;14.13;12.82;;;22.20;1.40;;;24.95;87.50;95636.47;646746;216;31801;-71
2021/07/08 10:03:10;;;;;;;14.20;13.00;;;22.30;1.40;;;24.63;85.14;95637.00;618770;222;32112;-71
2021/07/08 10:05:51;;;;;;;12.75;11.85;;;21.90;1.40;;;24.51;89.45;95634.49;645161;216;31882;-71
2021/07/08 10:08:39;;;;;;;14.50;13.30;;;21.60;1.40;;;24.45;89.75;95632.19;645781;216;31684;-72
2021/07/08 10:11:27;;;;;;;13.82;12.73;;;21.40;1.40;;;23.54;91.77;95643.45;646271;212;31915;-71
2021/07/08 10:14:12;;;;;;;11.70;10.90;;;20.70;1.40;;;22.90;97.50;95646.20;645306;216;31692;-72
2021/07/08 10:16:54;;;;;;;10.10;9.25;;;20.30;1.40;;;21.58;100.00;95649.88;646102;212;31586;-72
2021/07/08 10:19:35;;;;;;;11.12;10.20;;;19.30;1.40;;;21.04;100.00;95642.52;646018;216;31640;-70
2021/07/08 10:22:17;;;;;;;11.40;10.50;;;18.90;1.40;;;20.82;100.00;95638.12;644410;216;33296;-71
2021/07/08 10:24:58;;;;;;;12.05;11.25;;;18.80;1.40;;;20.93;100.00;95636.98;645556;212;32822;-70
2021/07/08 10:27:41;;;;;;;12.27;11.35;;;18.80;1.40;;;20.72;100.00;95639.74;619413;226;32041;-70
2021/07/08 10:30:22;;;;;;;12.40;11.40;;;18.70;1.40;;;20.48;100.00;95633.08;645645;212;31745;-70
2021/07/08 10:35:50;;;;;;;14.23;13.23;;;18.70;1.40;;;20.50;100.00;95637.33;646100;216;31638;-71
2021/07/08 10:38:36;;;;;;;15.25;14.05;;;18.70;1.40;;;20.35;100.00;95641.58;646498;216;31713;-70
2021/07/08 10:41:52;;;;;;;17.42;16.02;;;18.60;1.40;;;20.31;100.00;95653.73;633803;212;31780;-70
2021/07/08 10:44:39;;;;;;;15.82;14.52;;;18.50;1.40;;;20.19;100.00;95646.47;646191;216;31618;-71
2021/07/08 10:47:39;;;;;;;16.75;15.45;;;18.50;1.40;;;20.38;100.00;95653.34;619477;226;31953;-71
2021/07/08 10:50:42;;;;;;;17.95;16.55;;;18.70;1.40;;;20.60;100.00;95664.27;646014;212;31622;-71
2021/07/08 10:53:28;;;;;;;16.23;15.02;;;18.60;1.40;;;20.47;100.00;95678.13;645463;212;31633;-70
2021/07/08 10:56:13;;;;;;;16.55;15.27;;;18.60;1.40;;;20.38;100.00;95688.17;646724;216;31654;-70
2021/07/08 10:58:55;;;;;;;17.10;15.80;;;18.60;1.40;;;20.41;100.00;95688.81;646793;216;31617;-72
2021/07/08 11:01:45;;;;;;;16.12;14.93;;;18.60;1.40;;;20.21;100.00;95679.92;646538;212;31710;-71
2021/07/08 11:04:42;;;;;;;16.08;14.80;;;18.50;1.40;;;20.11;100.00;95678.61;647089;216;42867;-70
2021/07/08 11:07:26;;;;;;;14.50;13.30;;;18.50;1.40;;;20.09;100.00;95694.56;646383;216;31623;-71
2021/07/08 11:10:08;;;;;;;15.40;14.20;;;18.40;1.40;;;20.02;100.00;95710.48;647739;212;32019;-70
2021/07/08 11:12:50;;;;;;;15.10;14.00;;;18.40;1.40;;;19.92;100.00;95702.39;647393;212;31603;-70
2021/07/08 11:15:49;;;;;;;13.60;12.60;;;18.40;1.40;;;20.02;100.00;95680.13;646098;212;42577;-71
2021/07/08 11:18:31;;;;;;;14.30;13.30;;;18.50;1.40;;;20.59;100.00;95681.10;647611;212;31593;-70
2021/07/08 11:21:16;;;;;;;12.60;11.60;;;19.00;1.40;;;20.90;100.00;95706.91;646494;212;31651;-70
2021/07/08 11:23:57;;;;;;;9.85;9.10;;;19.10;1.40;;;20.80;100.00;95710.19;645749;212;31572;-71
2021/07/08 11:26:58;;;;;;;10.90;10.10;;;19.20;1.40;;;21.14;100.00;95700.17;646719;216;31515;-71
2021/07/08 11:29:42;;;;;;;9.68;8.77;;;19.40;1.40;;;21.31;100.00;95705.39;646961;212;31646;-71
2021/07/08 11:32:29;;;;;;;9.10;8.40;;;19.50;1.40;;;21.21;100.00;95705.13;646019;212;31604;-70
2021/07/08 11:35:56;;;;;;;7.63;7.03;;;19.40;1.40;;;21.21;100.00;95692.34;646642;216;31601;-70
2021/07/08 11:38:36;;;;;;;6.87;6.37;;;19.40;1.40;;;21.54;100.00;95681.52;645092;216;31933;-71
2021/07/08 11:41:17;;;;;;;6.18;5.68;;;19.70;1.40;;;21.58;100.00;95675.84;645939;216;32072;-72
2021/07/08 11:44:03;;;;;;;5.78;5.37;;;19.90;1.40;;;21.95;100.00;95675.48;646963;212;42254;-71
2021/07/08 11:46:41;;;;;;;5.60;5.20;;;20.10;1.40;;;21.89;100.00;95688.20;645760;216;31659;-71
2021/07/08 11:49:28;;;;;;;5.20;4.80;;;19.80;1.40;;;21.50;100.00;95700.95;647242;216;31817;-72